FMEP/ZSE METAR and TAF weather

Enter ICAO airport designator
Station Type Date Time Source
FMEP METAR 2018/09/21 23:30 UTC NOAA

FMEP 212330Z AUTO 04006KT 9999 SCT024 20/13 Q1019


Station Type Date Time Source
FMEP Decoded METAR 2018/09/21 23:30 UTC NOAA

Saint-Pierre, Reunion (FMEP) 21-20S 055-29E 53M
Sep 21, 2018 - 07:30 PM EDT / 2018.09.21 2330 UTC
Wind: from the NE (040 degrees) at 7 MPH (6 KT):0
Visibility: greater than 7 mile(s):0
Sky conditions: partly cloudy
Temperature: 68 F (20 C)
Dew Point: 55 F (13 C)
Relative Humidity: 64%
Pressure (altimeter): 30.09 in. Hg (1019 hPa)
ob: FMEP 212330Z AUTO 04006KT 9999 SCT024 20/13 Q1019
cycle: 23

Station Type Date Time Source
FMEP TAF 2018/07/05 06:24 UTC NOAA

TAF
AMD TAF FMEP 050618Z 0506/0515 12018G30KT 9999 FEW030


Example: see airport list